sensor_id;sensor_type;location;lat;lon;timestamp;P1;durP1;ratioP1;P2;durP2;ratioP2
2480;SDS011;57396;48.742;9.128;2024-03-02T00:02:15;17.40;;;13.33;;
2480;SDS011;57396;48.742;9.128;2024-03-02T00:04:44;13.50;;;10.73;;
2480;SDS011;57396;48.742;9.128;2024-03-02T00:07:09;12.53;;;9.90;;
2480;SDS011;57396;48.742;9.128;2024-03-02T00:09:35;19.30;;;14.33;;
2480;SDS011;57396;48.742;9.128;2024-03-02T00:12:01;14.20;;;10.50;;
2480;SDS011;57396;48.742;9.128;2024-03-02T00:14:29;14.13;;;10.40;;
2480;SDS011;57396;48.742;9.128;2024-03-02T00:16:55;12.63;;;9.97;;
2480;SDS011;57396;48.742;9.128;2024-03-02T00:19:21;12.97;;;9.93;;
2480;SDS011;57396;48.742;9.128;2024-03-02T00:21:46;30.07;;;21.20;;
2480;SDS011;57396;48.742;9.128;2024-03-02T00:24:26;14.20;;;10.73;;
2480;SDS011;57396;48.742;9.128;2024-03-02T00:26:58;54.33;;;32.73;;
2480;SDS011;57396;48.742;9.128;2024-03-02T00:29:23;35.20;;;21.93;;
2480;SDS011;57396;48.742;9.128;2024-03-02T00:31:49;20.40;;;12.00;;
2480;SDS011;57396;48.742;9.128;2024-03-02T00:34:15;32.93;;;21.17;;
2480;SDS011;57396;48.742;9.128;2024-03-02T00:36:41;15.50;;;12.47;;
2480;SDS011;57396;48.742;9.128;2024-03-02T00:39:07;16.97;;;11.10;;
2480;SDS011;57396;48.742;9.128;2024-03-02T00:41:33;13.50;;;9.57;;
2480;SDS011;57396;48.742;9.128;2024-03-02T00:43:59;14.10;;;10.40;;
2480;SDS011;57396;48.742;9.128;2024-03-02T00:46:38;24.17;;;16.40;;
2480;SDS011;57396;48.742;9.128;2024-03-02T00:49:05;51.23;;;31.87;;
2480;SDS011;57396;48.742;9.128;2024-03-02T00:51:47;40.23;;;26.13;;
2480;SDS011;57396;48.742;9.128;2024-03-02T00:54:23;20.33;;;14.30;;
2480;SDS011;57396;48.742;9.128;2024-03-02T00:56:51;35.80;;;23.73;;
2480;SDS011;57396;48.742;9.128;2024-03-02T00:59:16;13.23;;;10.33;;
2480;SDS011;57396;48.742;9.128;2024-03-02T01:01:42;22.90;;;15.80;;
2480;SDS011;57396;48.742;9.128;2024-03-02T01:04:08;31.87;;;20.33;;
2480;SDS011;57396;48.742;9.128;2024-03-02T01:06:34;17.30;;;11.80;;
2480;SDS011;57396;48.742;9.128;2024-03-02T01:09:00;41.47;;;26.13;;
2480;SDS011;57396;48.742;9.128;2024-03-02T01:11:25;20.27;;;13.40;;
2480;SDS011;57396;48.742;9.128;2024-03-02T01:13:51;34.27;;;21.60;;
2480;SDS011;57396;48.742;9.128;2024-03-02T01:16:17;49.20;;;30.13;;
2480;SDS011;57396;48.742;9.128;2024-03-02T01:18:42;21.30;;;14.87;;
2480;SDS011;57396;48.742;9.128;2024-03-02T01:21:08;17.37;;;12.20;;
2480;SDS011;57396;48.742;9.128;2024-03-02T01:23:33;10.90;;;8.67;;
2480;SDS011;57396;48.742;9.128;2024-03-02T01:25:59;14.70;;;10.43;;
2480;SDS011;57396;48.742;9.128;2024-03-02T01:28:24;45.03;;;29.47;;
2480;SDS011;57396;48.742;9.128;2024-03-02T01:30:50;35.60;;;23.63;;
2480;SDS011;57396;48.742;9.128;2024-03-02T01:33:19;27.77;;;19.30;;
2480;SDS011;57396;48.742;9.128;2024-03-02T01:35:44;24.00;;;15.93;;
2480;SDS011;57396;48.742;9.128;2024-03-02T01:38:10;22.70;;;16.20;;
2480;SDS011;57396;48.742;9.128;2024-03-02T01:40:36;12.60;;;9.20;;
2480;SDS011;57396;48.742;9.128;2024-03-02T01:43:02;21.80;;;14.70;;
2480;SDS011;57396;48.742;9.128;2024-03-02T01:45:29;29.67;;;18.70;;
2480;SDS011;57396;48.742;9.128;2024-03-02T01:47:55;25.87;;;16.40;;
2480;SDS011;57396;48.742;9.128;2024-03-02T01:50:31;14.13;;;9.93;;
2480;SDS011;57396;48.742;9.128;2024-03-02T01:52:57;12.03;;;8.97;;
2480;SDS011;57396;48.742;9.128;2024-03-02T01:55:22;42.80;;;26.17;;
2480;SDS011;57396;48.742;9.128;2024-03-02T01:57:48;22.70;;;16.20;;
2480;SDS011;57396;48.742;9.128;2024-03-02T02:00:16;21.93;;;14.60;;
2480;SDS011;57396;48.742;9.128;2024-03-02T02:02:42;13.20;;;10.53;;
2480;SDS011;57396;48.742;9.128;2024-03-02T02:05:08;13.20;;;10.10;;
2480;SDS011;57396;48.742;9.128;2024-03-02T02:07:34;14.47;;;11.40;;
2480;SDS011;57396;48.742;9.128;2024-03-02T02:10:00;11.50;;;8.67;;
2480;SDS011;57396;48.742;9.128;2024-03-02T02:12:26;11.83;;;10.17;;
2480;SDS011;57396;48.742;9.128;2024-03-02T02:14:51;14.80;;;9.80;;
2480;SDS011;57396;48.742;9.128;2024-03-02T02:17:17;13.77;;;10.57;;
2480;SDS011;57396;48.742;9.128;2024-03-02T02:19:42;12.27;;;9.57;;
2480;SDS011;57396;48.742;9.128;2024-03-02T02:22:10;11.63;;;9.00;;
2480;SDS011;57396;48.742;9.128;2024-03-02T02:24:39;32.53;;;19.50;;
2480;SDS011;57396;48.742;9.128;2024-03-02T02:27:08;13.00;;;9.83;;
2480;SDS011;57396;48.742;9.128;2024-03-02T02:29:34;19.47;;;13.83;;
2480;SDS011;57396;48.742;9.128;2024-03-02T02:31:59;16.23;;;12.03;;
2480;SDS011;57396;48.742;9.128;2024-03-02T02:34:24;16.00;;;10.97;;
2480;SDS011;57396;48.742;9.128;2024-03-02T02:36:50;14.57;;;10.27;;
2480;SDS011;57396;48.742;9.128;2024-03-02T02:39:16;13.60;;;10.10;;
2480;SDS011;57396;48.742;9.128;2024-03-02T02:41:42;15.47;;;11.07;;
2480;SDS011;57396;48.742;9.128;2024-03-02T02:44:08;12.27;;;9.30;;
2480;SDS011;57396;48.742;9.128;2024-03-02T02:46:33;25.97;;;12.30;;
2480;SDS011;57396;48.742;9.128;2024-03-02T02:48:59;14.80;;;10.07;;
2480;SDS011;57396;48.742;9.128;2024-03-02T02:51:24;16.53;;;11.90;;
2480;SDS011;57396;48.742;9.128;2024-03-02T02:53:51;13.93;;;10.33;;
2480;SDS011;57396;48.742;9.128;2024-03-02T02:56:16;12.70;;;10.40;;
2480;SDS011;57396;48.742;9.128;2024-03-02T02:58:42;18.23;;;10.10;;
2480;SDS011;57396;48.742;9.128;2024-03-02T03:01:07;13.77;;;10.40;;
2480;SDS011;57396;48.742;9.128;2024-03-02T03:03:33;16.97;;;11.40;;
2480;SDS011;57396;48.742;9.128;2024-03-02T03:05:58;14.30;;;10.70;;
2480;SDS011;57396;48.742;9.128;2024-03-02T03:08:24;13.70;;;10.57;;
2480;SDS011;57396;48.742;9.128;2024-03-02T03:10:49;19.33;;;11.53;;
2480;SDS011;57396;48.742;9.128;2024-03-02T03:13:15;15.40;;;10.50;;
2480;SDS011;57396;48.742;9.128;2024-03-02T03:15:41;14.47;;;10.83;;
2480;SDS011;57396;48.742;9.128;2024-03-02T03:18:06;14.17;;;10.63;;
2480;SDS011;57396;48.742;9.128;2024-03-02T03:20:33;15.37;;;11.60;;
2480;SDS011;57396;48.742;9.128;2024-03-02T03:22:58;14.60;;;11.30;;
2480;SDS011;57396;48.742;9.128;2024-03-02T03:25:24;17.60;;;12.00;;
2480;SDS011;57396;48.742;9.128;2024-03-02T03:27:50;16.07;;;10.90;;
2480;SDS011;57396;48.742;9.128;2024-03-02T03:30:18;16.20;;;11.17;;
2480;SDS011;57396;48.742;9.128;2024-03-02T03:32:43;16.63;;;11.90;;
2480;SDS011;57396;48.742;9.128;2024-03-02T03:35:09;12.20;;;10.47;;
2480;SDS011;57396;48.742;9.128;2024-03-02T03:37:34;15.40;;;11.00;;
2480;SDS011;57396;48.742;9.128;2024-03-02T03:40:01;14.90;;;11.33;;
2480;SDS011;57396;48.742;9.128;2024-03-02T03:42:38;15.90;;;11.90;;
2480;SDS011;57396;48.742;9.128;2024-03-02T03:45:04;15.80;;;11.50;;
2480;SDS011;57396;48.742;9.128;2024-03-02T03:47:33;15.50;;;10.90;;
2480;SDS011;57396;48.742;9.128;2024-03-02T03:49:59;14.37;;;10.70;;
2480;SDS011;57396;48.742;9.128;2024-03-02T03:52:24;16.60;;;11.17;;
2480;SDS011;57396;48.742;9.128;2024-03-02T03:54:50;16.23;;;11.10;;
2480;SDS011;57396;48.742;9.128;2024-03-02T03:57:15;13.73;;;10.73;;
2480;SDS011;57396;48.742;9.128;2024-03-02T03:59:41;18.83;;;11.63;;
2480;SDS011;57396;48.742;9.128;2024-03-02T04:02:07;16.67;;;11.83;;
2480;SDS011;57396;48.742;9.128;2024-03-02T04:04:33;15.47;;;12.37;;
2480;SDS011;57396;48.742;9.128;2024-03-02T04:06:58;17.73;;;12.40;;
2480;SDS011;57396;48.742;9.128;2024-03-02T04:09:24;17.33;;;11.90;;
2480;SDS011;57396;48.742;9.128;2024-03-02T04:11:50;20.20;;;13.50;;
2480;SDS011;57396;48.742;9.128;2024-03-02T04:14:16;14.70;;;10.93;;
2480;SDS011;57396;48.742;9.128;2024-03-02T04:16:42;17.27;;;12.20;;
2480;SDS011;57396;48.742;9.128;2024-03-02T04:19:07;16.70;;;11.37;;
2480;SDS011;57396;48.742;9.128;2024-03-02T04:21:33;16.93;;;12.43;;
2480;SDS011;57396;48.742;9.128;2024-03-02T04:23:58;17.83;;;12.07;;
2480;SDS011;57396;48.742;9.128;2024-03-02T04:26:27;15.70;;;11.23;;
2480;SDS011;57396;48.742;9.128;2024-03-02T04:28:52;16.30;;;11.53;;
2480;SDS011;57396;48.742;9.128;2024-03-02T04:31:19;15.47;;;11.67;;
2480;SDS011;57396;48.742;9.128;2024-03-02T04:33:45;15.30;;;11.23;;
2480;SDS011;57396;48.742;9.128;2024-03-02T04:36:10;18.17;;;11.97;;
2480;SDS011;57396;48.742;9.128;2024-03-02T04:38:36;15.97;;;11.97;;
2480;SDS011;57396;48.742;9.128;2024-03-02T04:41:03;27.03;;;16.60;;
2480;SDS011;57396;48.742;9.128;2024-03-02T04:43:29;14.90;;;11.03;;
2480;SDS011;57396;48.742;9.128;2024-03-02T04:45:54;21.03;;;13.67;;
2480;SDS011;57396;48.742;9.128;2024-03-02T04:48:19;15.17;;;10.60;;
2480;SDS011;57396;48.742;9.128;2024-03-02T04:50:47;17.77;;;10.00;;
2480;SDS011;57396;48.742;9.128;2024-03-02T04:53:12;15.73;;;12.00;;
2480;SDS011;57396;48.742;9.128;2024-03-02T04:55:38;19.23;;;11.87;;
2480;SDS011;57396;48.742;9.128;2024-03-02T04:58:06;22.10;;;14.00;;
2480;SDS011;57396;48.742;9.128;2024-03-02T05:00:32;17.77;;;11.50;;
2480;SDS011;57396;48.742;9.128;2024-03-02T05:02:57;25.50;;;16.30;;
2480;SDS011;57396;48.742;9.128;2024-03-02T05:05:23;21.00;;;12.17;;
2480;SDS011;57396;48.742;9.128;2024-03-02T05:07:48;21.23;;;13.83;;
2480;SDS011;57396;48.742;9.128;2024-03-02T05:10:14;18.73;;;12.27;;
2480;SDS011;57396;48.742;9.128;2024-03-02T05:12:39;16.20;;;11.13;;
2480;SDS011;57396;48.742;9.128;2024-03-02T05:15:08;15.10;;;11.27;;
2480;SDS011;57396;48.742;9.128;2024-03-02T05:17:38;17.90;;;10.77;;
2480;SDS011;57396;48.742;9.128;2024-03-02T05:20:08;16.10;;;11.40;;
2480;SDS011;57396;48.742;9.128;2024-03-02T05:22:34;17.40;;;12.60;;
2480;SDS011;57396;48.742;9.128;2024-03-02T05:25:00;19.10;;;12.10;;
2480;SDS011;57396;48.742;9.128;2024-03-02T05:27:26;16.97;;;10.90;;
2480;SDS011;57396;48.742;9.128;2024-03-02T05:29:52;15.03;;;11.07;;
2480;SDS011;57396;48.742;9.128;2024-03-02T05:32:17;17.60;;;11.77;;
2480;SDS011;57396;48.742;9.128;2024-03-02T05:34:43;14.70;;;10.50;;
2480;SDS011;57396;48.742;9.128;2024-03-02T05:37:08;16.23;;;11.97;;
2480;SDS011;57396;48.742;9.128;2024-03-02T05:39:34;15.53;;;11.73;;
2480;SDS011;57396;48.742;9.128;2024-03-02T05:41:59;16.83;;;11.53;;
2480;SDS011;57396;48.742;9.128;2024-03-02T05:44:25;16.40;;;12.10;;
2480;SDS011;57396;48.742;9.128;2024-03-02T05:46:50;16.30;;;12.40;;
2480;SDS011;57396;48.742;9.128;2024-03-02T05:49:15;20.93;;;14.37;;
2480;SDS011;57396;48.742;9.128;2024-03-02T05:51:41;19.80;;;11.87;;
2480;SDS011;57396;48.742;9.128;2024-03-02T05:54:06;21.07;;;13.80;;
2480;SDS011;57396;48.742;9.128;2024-03-02T05:56:32;19.10;;;12.43;;
2480;SDS011;57396;48.742;9.128;2024-03-02T05:58:58;17.90;;;11.80;;
2480;SDS011;57396;48.742;9.128;2024-03-02T06:01:39;18.10;;;11.70;;
2480;SDS011;57396;48.742;9.128;2024-03-02T06:04:05;18.23;;;11.97;;
2480;SDS011;57396;48.742;9.128;2024-03-02T06:06:30;17.03;;;12.73;;
2480;SDS011;57396;48.742;9.128;2024-03-02T06:08:59;20.37;;;12.63;;
2480;SDS011;57396;48.742;9.128;2024-03-02T06:11:30;18.30;;;12.63;;
2480;SDS011;57396;48.742;9.128;2024-03-02T06:13:56;16.67;;;11.77;;
2480;SDS011;57396;48.742;9.128;2024-03-02T06:16:21;17.17;;;12.07;;
2480;SDS011;57396;48.742;9.128;2024-03-02T06:18:46;18.23;;;12.53;;
2480;SDS011;57396;48.742;9.128;2024-03-02T06:21:12;21.90;;;12.73;;
2480;SDS011;57396;48.742;9.128;2024-03-02T06:23:37;16.93;;;12.03;;
2480;SDS011;57396;48.742;9.128;2024-03-02T06:26:03;16.67;;;11.70;;
2480;SDS011;57396;48.742;9.128;2024-03-02T06:28:28;18.03;;;12.53;;
2480;SDS011;57396;48.742;9.128;2024-03-02T06:30:54;15.17;;;11.10;;
2480;SDS011;57396;48.742;9.128;2024-03-02T06:33:19;17.30;;;12.20;;
2480;SDS011;57396;48.742;9.128;2024-03-02T06:35:45;17.63;;;11.93;;
2480;SDS011;57396;48.742;9.128;2024-03-02T06:38:10;16.93;;;11.67;;
2480;SDS011;57396;48.742;9.128;2024-03-02T06:40:36;19.30;;;12.00;;
2480;SDS011;57396;48.742;9.128;2024-03-02T06:43:03;16.13;;;12.20;;
2480;SDS011;57396;48.742;9.128;2024-03-02T06:45:29;20.60;;;13.33;;
2480;SDS011;57396;48.742;9.128;2024-03-02T06:47:55;21.83;;;14.70;;
2480;SDS011;57396;48.742;9.128;2024-03-02T06:50:21;21.60;;;14.60;;
2480;SDS011;57396;48.742;9.128;2024-03-02T06:52:47;23.13;;;13.13;;
2480;SDS011;57396;48.742;9.128;2024-03-02T06:55:12;22.30;;;14.27;;
2480;SDS011;57396;48.742;9.128;2024-03-02T06:57:38;16.40;;;11.33;;
2480;SDS011;57396;48.742;9.128;2024-03-02T07:00:03;18.60;;;13.50;;
2480;SDS011;57396;48.742;9.128;2024-03-02T07:02:30;22.73;;;15.30;;
2480;SDS011;57396;48.742;9.128;2024-03-02T07:04:55;17.97;;;12.40;;
2480;SDS011;57396;48.742;9.128;2024-03-02T07:07:21;20.50;;;12.40;;
2480;SDS011;57396;48.742;9.128;2024-03-02T07:09:47;26.17;;;15.27;;
2480;SDS011;57396;48.742;9.128;2024-03-02T07:12:13;18.17;;;10.93;;
2480;SDS011;57396;48.742;9.128;2024-03-02T07:14:39;13.50;;;10.00;;
2480;SDS011;57396;48.742;9.128;2024-03-02T07:17:24;13.60;;;10.50;;
2480;SDS011;57396;48.742;9.128;2024-03-02T07:19:51;14.47;;;9.70;;
2480;SDS011;57396;48.742;9.128;2024-03-02T07:22:16;13.60;;;10.50;;
2480;SDS011;57396;48.742;9.128;2024-03-02T07:24:42;17.27;;;11.03;;
2480;SDS011;57396;48.742;9.128;2024-03-02T07:27:08;15.83;;;11.03;;
2480;SDS011;57396;48.742;9.128;2024-03-02T07:29:34;14.20;;;10.20;;
2480;SDS011;57396;48.742;9.128;2024-03-02T07:32:00;12.10;;;9.73;;
2480;SDS011;57396;48.742;9.128;2024-03-02T07:34:25;14.33;;;9.53;;
2480;SDS011;57396;48.742;9.128;2024-03-02T07:36:50;17.43;;;10.90;;
2480;SDS011;57396;48.742;9.128;2024-03-02T07:39:16;13.00;;;8.90;;
2480;SDS011;57396;48.742;9.128;2024-03-02T07:41:42;16.13;;;10.73;;
2480;SDS011;57396;48.742;9.128;2024-03-02T07:44:07;12.57;;;9.50;;
2480;SDS011;57396;48.742;9.128;2024-03-02T07:46:33;14.10;;;10.17;;
2480;SDS011;57396;48.742;9.128;2024-03-02T07:48:58;12.90;;;9.03;;
2480;SDS011;57396;48.742;9.128;2024-03-02T07:51:23;14.60;;;9.90;;
2480;SDS011;57396;48.742;9.128;2024-03-02T07:53:49;13.43;;;9.83;;
2480;SDS011;57396;48.742;9.128;2024-03-02T07:56:14;15.33;;;10.47;;
2480;SDS011;57396;48.742;9.128;2024-03-02T07:58:46;14.80;;;10.00;;
2480;SDS011;57396;48.742;9.128;2024-03-02T08:01:13;14.53;;;9.97;;
2480;SDS011;57396;48.742;9.128;2024-03-02T08:03:38;14.57;;;9.63;;
2480;SDS011;57396;48.742;9.128;2024-03-02T08:06:04;12.20;;;9.57;;
2480;SDS011;57396;48.742;9.128;2024-03-02T08:08:29;12.57;;;9.73;;
2480;SDS011;57396;48.742;9.128;2024-03-02T08:10:55;13.53;;;9.70;;
2480;SDS011;57396;48.742;9.128;2024-03-02T08:13:20;13.63;;;9.70;;
2480;SDS011;57396;48.742;9.128;2024-03-02T08:15:46;12.57;;;9.90;;
2480;SDS011;57396;48.742;9.128;2024-03-02T08:18:11;13.07;;;9.80;;
2480;SDS011;57396;48.742;9.128;2024-03-02T08:20:37;11.90;;;9.20;;
2480;SDS011;57396;48.742;9.128;2024-03-02T08:23:03;12.23;;;9.77;;
2480;SDS011;57396;48.742;9.128;2024-03-02T08:25:28;16.07;;;9.73;;
2480;SDS011;57396;48.742;9.128;2024-03-02T08:27:54;11.40;;;8.93;;
2480;SDS011;57396;48.742;9.128;2024-03-02T08:30:19;11.77;;;8.97;;
2480;SDS011;57396;48.742;9.128;2024-03-02T08:32:45;9.67;;;8.30;;
2480;SDS011;57396;48.742;9.128;2024-03-02T08:35:12;11.43;;;8.07;;
2480;SDS011;57396;48.742;9.128;2024-03-02T08:37:39;10.10;;;8.10;;
2480;SDS011;57396;48.742;9.128;2024-03-02T08:40:06;12.07;;;8.97;;
2480;SDS011;57396;48.742;9.128;2024-03-02T08:42:32;11.53;;;8.50;;
2480;SDS011;57396;48.742;9.128;2024-03-02T08:44:58;12.53;;;7.90;;
2480;SDS011;57396;48.742;9.128;2024-03-02T08:47:26;8.70;;;7.10;;
2480;SDS011;57396;48.742;9.128;2024-03-02T08:49:52;10.80;;;7.90;;
2480;SDS011;57396;48.742;9.128;2024-03-02T08:52:17;9.07;;;7.40;;
2480;SDS011;57396;48.742;9.128;2024-03-02T08:54:43;10.13;;;8.17;;
2480;SDS011;57396;48.742;9.128;2024-03-02T08:57:08;8.33;;;6.80;;
2480;SDS011;57396;48.742;9.128;2024-03-02T08:59:34;11.33;;;8.63;;
2480;SDS011;57396;48.742;9.128;2024-03-02T09:01:59;10.93;;;7.60;;
2480;SDS011;57396;48.742;9.128;2024-03-02T09:04:24;10.30;;;6.47;;
2480;SDS011;57396;48.742;9.128;2024-03-02T09:06:50;8.30;;;6.63;;
2480;SDS011;57396;48.742;9.128;2024-03-02T09:09:15;8.90;;;6.10;;
2480;SDS011;57396;48.742;9.128;2024-03-02T09:11:41;9.83;;;6.17;;
2480;SDS011;57396;48.742;9.128;2024-03-02T09:14:07;6.80;;;6.10;;
2480;SDS011;57396;48.742;9.128;2024-03-02T09:16:32;6.60;;;5.90;;
2480;SDS011;57396;48.742;9.128;2024-03-02T09:18:58;7.20;;;6.40;;
2480;SDS011;57396;48.742;9.128;2024-03-02T09:21:23;6.60;;;5.90;;
2480;SDS011;57396;48.742;9.128;2024-03-02T09:23:51;6.50;;;5.63;;
2480;SDS011;57396;48.742;9.128;2024-03-02T09:26:17;6.60;;;5.20;;
2480;SDS011;57396;48.742;9.128;2024-03-02T09:28:44;6.70;;;5.50;;
2480;SDS011;57396;48.742;9.128;2024-03-02T09:31:10;5.30;;;4.80;;
2480;SDS011;57396;48.742;9.128;2024-03-02T09:33:37;6.13;;;4.80;;
2480;SDS011;57396;48.742;9.128;2024-03-02T09:36:04;7.50;;;4.90;;
2480;SDS011;57396;48.742;9.128;2024-03-02T09:38:34;5.00;;;4.50;;
2480;SDS011;57396;48.742;9.128;2024-03-02T09:41:00;5.50;;;4.90;;
2480;SDS011;57396;48.742;9.128;2024-03-02T09:43:26;7.07;;;4.67;;
2480;SDS011;57396;48.742;9.128;2024-03-02T09:45:51;6.80;;;4.03;;
2480;SDS011;57396;48.742;9.128;2024-03-02T09:48:17;7.53;;;4.57;;
2480;SDS011;57396;48.742;9.128;2024-03-02T09:50:43;5.10;;;4.60;;
2480;SDS011;57396;48.742;9.128;2024-03-02T09:53:09;5.53;;;4.30;;
2480;SDS011;57396;48.742;9.128;2024-03-02T09:55:35;5.27;;;4.37;;
2480;SDS011;57396;48.742;9.128;2024-03-02T09:58:01;5.10;;;4.23;;
2480;SDS011;57396;48.742;9.128;2024-03-02T10:00:26;4.10;;;3.70;;
2480;SDS011;57396;48.742;9.128;2024-03-02T10:02:52;4.20;;;3.80;;
2480;SDS011;57396;48.742;9.128;2024-03-02T10:05:26;4.53;;;3.63;;
2480;SDS011;57396;48.742;9.128;2024-03-02T10:08:02;4.80;;;3.20;;
2480;SDS011;57396;48.742;9.128;2024-03-02T10:10:34;4.60;;;4.20;;
2480;SDS011;57396;48.742;9.128;2024-03-02T10:13:04;4.50;;;4.10;;
2480;SDS011;57396;48.742;9.128;2024-03-02T10:15:33;4.23;;;3.83;;
2480;SDS011;57396;48.742;9.128;2024-03-02T10:17:58;3.60;;;3.30;;
2480;SDS011;57396;48.742;9.128;2024-03-02T10:20:27;4.27;;;3.77;;
2480;SDS011;57396;48.742;9.128;2024-03-02T10:25:55;4.93;;;3.93;;
2480;SDS011;57396;48.742;9.128;2024-03-02T10:28:21;4.27;;;3.80;;
2480;SDS011;57396;48.742;9.128;2024-03-02T10:30:47;4.00;;;3.60;;
2480;SDS011;57396;48.742;9.128;2024-03-02T10:33:13;7.10;;;5.50;;
2480;SDS011;57396;48.742;9.128;2024-03-02T10:35:39;4.17;;;3.77;;
2480;SDS011;57396;48.742;9.128;2024-03-02T10:38:05;6.20;;;2.80;;
2480;SDS011;57396;48.742;9.128;2024-03-02T10:40:31;2.87;;;2.67;;
2480;SDS011;57396;48.742;9.128;2024-03-02T10:42:57;3.10;;;2.80;;
2480;SDS011;57396;48.742;9.128;2024-03-02T10:45:24;3.20;;;2.70;;
2480;SDS011;57396;48.742;9.128;2024-03-02T10:47:50;2.93;;;2.67;;
2480;SDS011;57396;48.742;9.128;2024-03-02T10:50:16;3.57;;;3.00;;
2480;SDS011;57396;48.742;9.128;2024-03-02T10:52:42;2.70;;;2.50;;
2480;SDS011;57396;48.742;9.128;2024-03-02T10:55:08;3.97;;;2.27;;
2480;SDS011;57396;48.742;9.128;2024-03-02T11:00:17;2.77;;;2.00;;
2480;SDS011;57396;48.742;9.128;2024-03-02T11:02:47;2.43;;;2.23;;
2480;SDS011;57396;48.742;9.128;2024-03-02T11:05:17;3.20;;;2.60;;
2480;SDS011;57396;48.742;9.128;2024-03-02T11:07:50;2.70;;;2.50;;
2480;SDS011;57396;48.742;9.128;2024-03-02T11:10:18;2.30;;;2.10;;
2480;SDS011;57396;48.742;9.128;2024-03-02T11:12:46;2.50;;;2.30;;
2480;SDS011;57396;48.742;9.128;2024-03-02T11:15:15;2.83;;;2.60;;
2480;SDS011;57396;48.742;9.128;2024-03-02T11:17:43;4.73;;;2.40;;
2480;SDS011;57396;48.742;9.128;2024-03-02T11:20:09;3.17;;;2.70;;
2480;SDS011;57396;48.742;9.128;2024-03-02T11:22:35;2.90;;;2.70;;
2480;SDS011;57396;48.742;9.128;2024-03-02T11:25:01;4.47;;;3.10;;
2480;SDS011;57396;48.742;9.128;2024-03-02T11:33:02;3.30;;;2.97;;
2480;SDS011;57396;48.742;9.128;2024-03-02T11:35:32;3.00;;;2.40;;
2480;SDS011;57396;48.742;9.128;2024-03-02T11:37:58;2.40;;;2.20;;
2480;SDS011;57396;48.742;9.128;2024-03-02T11:40:24;1.87;;;1.77;;
2480;SDS011;57396;48.742;9.128;2024-03-02T11:42:50;2.27;;;1.50;;
2480;SDS011;57396;48.742;9.128;2024-03-02T11:45:25;2.50;;;2.07;;
2480;SDS011;57396;48.742;9.128;2024-03-02T11:47:55;1.70;;;1.40;;
2480;SDS011;57396;48.742;9.128;2024-03-02T11:50:30;1.60;;;1.50;;
2480;SDS011;57396;48.742;9.128;2024-03-02T11:53:00;0.90;;;0.80;;
2480;SDS011;57396;48.742;9.128;2024-03-02T11:55:26;6.10;;;1.00;;
2480;SDS011;57396;48.742;9.128;2024-03-02T11:57:52;2.33;;;1.00;;
2480;SDS011;57396;48.742;9.128;2024-03-02T12:00:18;1.40;;;1.20;;
2480;SDS011;57396;48.742;9.128;2024-03-02T12:02:45;1.33;;;1.17;;
2480;SDS011;57396;48.742;9.128;2024-03-02T12:05:14;1.30;;;1.17;;
2480;SDS011;57396;48.742;9.128;2024-03-02T12:07:41;1.73;;;1.57;;
2480;SDS011;57396;48.742;9.128;2024-03-02T12:10:06;2.87;;;2.57;;
2480;SDS011;57396;48.742;9.128;2024-03-02T12:12:35;2.70;;;2.50;;
2480;SDS011;57396;48.742;9.128;2024-03-02T12:15:00;5.23;;;4.57;;
2480;SDS011;57396;48.742;9.128;2024-03-02T12:17:26;1.63;;;1.53;;
2480;SDS011;57396;48.742;9.128;2024-03-02T12:19:51;1.60;;;1.30;;
2480;SDS011;57396;48.742;9.128;2024-03-02T12:22:18;1.67;;;1.53;;
2480;SDS011;57396;48.742;9.128;2024-03-02T12:24:43;1.93;;;1.40;;
2480;SDS011;57396;48.742;9.128;2024-03-02T12:27:10;7.17;;;1.53;;
2480;SDS011;57396;48.742;9.128;2024-03-02T12:29:36;1.50;;;1.40;;
2480;SDS011;57396;48.742;9.128;2024-03-02T12:32:02;1.70;;;1.60;;
2480;SDS011;57396;48.742;9.128;2024-03-02T12:34:28;1.70;;;1.60;;
2480;SDS011;57396;48.742;9.128;2024-03-02T12:36:53;1.53;;;1.40;;
2480;SDS011;57396;48.742;9.128;2024-03-02T12:39:19;1.90;;;1.80;;
2480;SDS011;57396;48.742;9.128;2024-03-02T12:41:48;2.10;;;1.80;;
2480;SDS011;57396;48.742;9.128;2024-03-02T12:44:19;2.90;;;1.80;;
2480;SDS011;57396;48.742;9.128;2024-03-02T12:46:45;2.63;;;1.70;;
2480;SDS011;57396;48.742;9.128;2024-03-02T12:49:11;2.20;;;1.60;;
2480;SDS011;57396;48.742;9.128;2024-03-02T12:51:38;2.00;;;1.90;;
2480;SDS011;57396;48.742;9.128;2024-03-02T12:54:06;2.70;;;2.00;;
2480;SDS011;57396;48.742;9.128;2024-03-02T12:56:31;2.10;;;1.80;;
2480;SDS011;57396;48.742;9.128;2024-03-02T12:58:58;2.10;;;1.90;;
2480;SDS011;57396;48.742;9.128;2024-03-02T13:01:24;1.63;;;1.53;;
2480;SDS011;57396;48.742;9.128;2024-03-02T13:03:50;2.13;;;1.97;;
2480;SDS011;57396;48.742;9.128;2024-03-02T13:06:16;1.90;;;1.63;;
2480;SDS011;57396;48.742;9.128;2024-03-02T13:08:42;1.70;;;1.60;;
2480;SDS011;57396;48.742;9.128;2024-03-02T13:11:08;2.00;;;1.70;;
2480;SDS011;57396;48.742;9.128;2024-03-02T13:13:33;5.33;;;2.30;;
2480;SDS011;57396;48.742;9.128;2024-03-02T13:16:00;2.00;;;1.90;;
2480;SDS011;57396;48.742;9.128;2024-03-02T13:18:25;1.73;;;1.57;;
2480;SDS011;57396;48.742;9.128;2024-03-02T13:20:51;3.70;;;2.03;;
2480;SDS011;57396;48.742;9.128;2024-03-02T13:23:17;2.00;;;1.80;;
2480;SDS011;57396;48.742;9.128;2024-03-02T13:25:42;2.30;;;2.10;;
2480;SDS011;57396;48.742;9.128;2024-03-02T13:28:08;2.93;;;1.50;;
2480;SDS011;57396;48.742;9.128;2024-03-02T13:30:34;2.30;;;2.10;;
2480;SDS011;57396;48.742;9.128;2024-03-02T13:32:59;2.27;;;2.00;;
2480;SDS011;57396;48.742;9.128;2024-03-02T13:35:25;2.87;;;1.83;;
2480;SDS011;57396;48.742;9.128;2024-03-02T13:37:50;2.47;;;1.70;;
2480;SDS011;57396;48.742;9.128;2024-03-02T13:40:16;1.80;;;1.53;;
2480;SDS011;57396;48.742;9.128;2024-03-02T13:42:45;2.13;;;1.93;;
2480;SDS011;57396;48.742;9.128;2024-03-02T13:45:11;1.93;;;1.83;;
2480;SDS011;57396;48.742;9.128;2024-03-02T13:47:37;2.47;;;1.67;;
2480;SDS011;57396;48.742;9.128;2024-03-02T13:50:03;1.93;;;1.70;;
2480;SDS011;57396;48.742;9.128;2024-03-02T13:52:30;1.83;;;1.73;;
2480;SDS011;57396;48.742;9.128;2024-03-02T13:54:55;5.03;;;2.10;;
2480;SDS011;57396;48.742;9.128;2024-03-02T13:57:21;2.17;;;1.70;;
2480;SDS011;57396;48.742;9.128;2024-03-02T13:59:46;2.20;;;2.00;;
2480;SDS011;57396;48.742;9.128;2024-03-02T14:02:12;4.00;;;3.60;;
2480;SDS011;57396;48.742;9.128;2024-03-02T14:04:37;1.70;;;1.60;;
2480;SDS011;57396;48.742;9.128;2024-03-02T14:07:04;2.23;;;1.67;;
2480;SDS011;57396;48.742;9.128;2024-03-02T14:09:32;2.07;;;1.87;;
2480;SDS011;57396;48.742;9.128;2024-03-02T14:11:57;6.17;;;4.77;;
2480;SDS011;57396;48.742;9.128;2024-03-02T14:14:25;5.27;;;3.73;;
2480;SDS011;57396;48.742;9.128;2024-03-02T14:16:52;2.30;;;2.10;;
2480;SDS011;57396;48.742;9.128;2024-03-02T14:19:17;4.27;;;2.60;;
2480;SDS011;57396;48.742;9.128;2024-03-02T14:21:43;2.10;;;1.90;;
2480;SDS011;57396;48.742;9.128;2024-03-02T14:24:09;5.77;;;5.00;;
2480;SDS011;57396;48.742;9.128;2024-03-02T14:26:35;2.17;;;1.97;;
2480;SDS011;57396;48.742;9.128;2024-03-02T14:29:01;4.80;;;3.50;;
2480;SDS011;57396;48.742;9.128;2024-03-02T14:31:28;1.80;;;1.60;;
2480;SDS011;57396;48.742;9.128;2024-03-02T14:33:54;4.27;;;3.87;;
2480;SDS011;57396;48.742;9.128;2024-03-02T14:36:19;1.43;;;1.33;;
2480;SDS011;57396;48.742;9.128;2024-03-02T14:38:45;2.27;;;2.07;;
2480;SDS011;57396;48.742;9.128;2024-03-02T14:41:10;1.40;;;1.30;;
2480;SDS011;57396;48.742;9.128;2024-03-02T14:43:36;1.90;;;1.70;;
2480;SDS011;57396;48.742;9.128;2024-03-02T14:46:02;2.97;;;1.60;;
2480;SDS011;57396;48.742;9.128;2024-03-02T14:48:28;1.63;;;1.20;;
2480;SDS011;57396;48.742;9.128;2024-03-02T14:50:54;1.50;;;1.40;;
2480;SDS011;57396;48.742;9.128;2024-03-02T14:53:19;1.53;;;1.43;;